sensor_id;sensor_type;location;lat;lon;timestamp;temperature;humidity
13035;DHT22;6584;48.022;11.810;2022-11-03T00:01:10;8.80;99.90
13035;DHT22;6584;48.022;11.810;2022-11-03T00:03:36;8.70;99.90
13035;DHT22;6584;48.022;11.810;2022-11-03T00:06:02;8.70;99.90
13035;DHT22;6584;48.022;11.810;2022-11-03T00:08:35;8.60;99.90
13035;DHT22;6584;48.022;11.810;2022-11-03T00:11:03;8.50;99.90
13035;DHT22;6584;48.022;11.810;2022-11-03T00:13:29;8.40;99.90
13035;DHT22;6584;48.022;11.810;2022-11-03T00:15:54;8.30;99.90
13035;DHT22;6584;48.022;11.810;2022-11-03T00:18:20;8.30;99.90
13035;DHT22;6584;48.022;11.810;2022-11-03T00:20:54;8.30;99.90
13035;DHT22;6584;48.022;11.810;2022-11-03T00:23:20;8.20;99.90
13035;DHT22;6584;48.022;11.810;2022-11-03T00:25:46;8.20;99.90
13035;DHT22;6584;48.022;11.810;2022-11-03T00:28:11;8.20;99.90
13035;DHT22;6584;48.022;11.810;2022-11-03T00:30:38;8.20;99.90
13035;DHT22;6584;48.022;11.810;2022-11-03T00:33:04;8.10;99.90
13035;DHT22;6584;48.022;11.810;2022-11-03T00:35:29;8.00;99.90
13035;DHT22;6584;48.022;11.810;2022-11-03T00:37:55;8.10;99.90
13035;DHT22;6584;48.022;11.810;2022-11-03T00:40:20;8.10;99.90
13035;DHT22;6584;48.022;11.810;2022-11-03T00:42:46;8.10;99.90
13035;DHT22;6584;48.022;11.810;2022-11-03T00:45:11;8.10;99.90
13035;DHT22;6584;48.022;11.810;2022-11-03T00:47:37;8.10;99.90
13035;DHT22;6584;48.022;11.810;2022-11-03T00:50:22;8.10;99.90
13035;DHT22;6584;48.022;11.810;2022-11-03T00:52:48;8.10;99.90
13035;DHT22;6584;48.022;11.810;2022-11-03T00:55:14;8.10;99.90
13035;DHT22;6584;48.022;11.810;2022-11-03T00:57:39;8.20;99.90
13035;DHT22;6584;48.022;11.810;2022-11-03T01:00:05;8.20;99.90
13035;DHT22;6584;48.022;11.810;2022-11-03T01:02:31;8.30;99.90
13035;DHT22;6584;48.022;11.810;2022-11-03T01:04:57;8.30;99.90
13035;DHT22;6584;48.022;11.810;2022-11-03T01:07:41;8.30;99.90
13035;DHT22;6584;48.022;11.810;2022-11-03T01:10:07;8.30;99.90
13035;DHT22;6584;48.022;11.810;2022-11-03T01:12:34;8.30;99.90
13035;DHT22;6584;48.022;11.810;2022-11-03T01:14:59;8.30;99.90
13035;DHT22;6584;48.022;11.810;2022-11-03T01:17:26;8.30;99.90
13035;DHT22;6584;48.022;11.810;2022-11-03T01:19:53;8.30;99.90
13035;DHT22;6584;48.022;11.810;2022-11-03T01:22:19;8.30;99.90
13035;DHT22;6584;48.022;11.810;2022-11-03T01:24:45;8.30;99.90
13035;DHT22;6584;48.022;11.810;2022-11-03T01:27:13;8.20;99.90
13035;DHT22;6584;48.022;11.810;2022-11-03T01:29:39;8.30;99.90
13035;DHT22;6584;48.022;11.810;2022-11-03T01:32:05;8.20;99.90
13035;DHT22;6584;48.022;11.810;2022-11-03T01:34:32;8.20;99.90
13035;DHT22;6584;48.022;11.810;2022-11-03T01:36:58;8.20;99.90
13035;DHT22;6584;48.022;11.810;2022-11-03T01:39:23;8.20;99.90
13035;DHT22;6584;48.022;11.810;2022-11-03T01:41:50;8.30;99.90
13035;DHT22;6584;48.022;11.810;2022-11-03T01:46:53;8.40;99.90
13035;DHT22;6584;48.022;11.810;2022-11-03T01:49:46;8.30;99.90
13035;DHT22;6584;48.022;11.810;2022-11-03T01:52:42;8.40;99.90
13035;DHT22;6584;48.022;11.810;2022-11-03T01:55:13;8.40;99.90
13035;DHT22;6584;48.022;11.810;2022-11-03T01:57:57;8.30;99.90
13035;DHT22;6584;48.022;11.810;2022-11-03T02:00:24;8.20;99.90
13035;DHT22;6584;48.022;11.810;2022-11-03T02:02:50;8.20;99.90
13035;DHT22;6584;48.022;11.810;2022-11-03T02:05:16;8.30;99.90
13035;DHT22;6584;48.022;11.810;2022-11-03T02:08:04;8.30;99.90
13035;DHT22;6584;48.022;11.810;2022-11-03T02:10:30;8.30;99.90
13035;DHT22;6584;48.022;11.810;2022-11-03T02:12:56;8.30;99.90
13035;DHT22;6584;48.022;11.810;2022-11-03T02:15:22;8.20;99.90
13035;DHT22;6584;48.022;11.810;2022-11-03T02:17:49;8.20;99.90
13035;DHT22;6584;48.022;11.810;2022-11-03T02:20:19;8.20;99.90
13035;DHT22;6584;48.022;11.810;2022-11-03T02:28:12;8.10;99.90
13035;DHT22;6584;48.022;11.810;2022-11-03T02:35:58;7.90;99.90
13035;DHT22;6584;48.022;11.810;2022-11-03T02:38:28;7.80;99.90
13035;DHT22;6584;48.022;11.810;2022-11-03T02:40:58;7.80;99.90
13035;DHT22;6584;48.022;11.810;2022-11-03T02:43:25;7.80;99.90
13035;DHT22;6584;48.022;11.810;2022-11-03T02:45:52;7.80;99.90
13035;DHT22;6584;48.022;11.810;2022-11-03T02:48:18;7.90;99.90
13035;DHT22;6584;48.022;11.810;2022-11-03T02:50:45;7.90;99.90
13035;DHT22;6584;48.022;11.810;2022-11-03T02:53:12;7.90;99.90
13035;DHT22;6584;48.022;11.810;2022-11-03T02:55:44;7.80;99.90
13035;DHT22;6584;48.022;11.810;2022-11-03T02:58:23;7.80;99.90
13035;DHT22;6584;48.022;11.810;2022-11-03T03:00:52;7.80;99.90
13035;DHT22;6584;48.022;11.810;2022-11-03T03:03:25;7.70;99.90
13035;DHT22;6584;48.022;11.810;2022-11-03T03:05:57;7.60;99.90
13035;DHT22;6584;48.022;11.810;2022-11-03T03:08:24;7.70;99.90
13035;DHT22;6584;48.022;11.810;2022-11-03T03:10:51;7.80;99.90
13035;DHT22;6584;48.022;11.810;2022-11-03T03:13:19;7.80;99.90
13035;DHT22;6584;48.022;11.810;2022-11-03T03:16:07;7.90;99.90
13035;DHT22;6584;48.022;11.810;2022-11-03T03:18:45;7.70;99.90
13035;DHT22;6584;48.022;11.810;2022-11-03T03:21:25;7.60;99.90
13035;DHT22;6584;48.022;11.810;2022-11-03T03:23:58;7.40;99.90
13035;DHT22;6584;48.022;11.810;2022-11-03T03:26:32;7.40;99.90
13035;DHT22;6584;48.022;11.810;2022-11-03T03:29:06;7.30;99.90
13035;DHT22;6584;48.022;11.810;2022-11-03T03:31:36;7.30;99.90
13035;DHT22;6584;48.022;11.810;2022-11-03T03:34:03;7.30;99.90
13035;DHT22;6584;48.022;11.810;2022-11-03T03:36:31;7.20;99.90
13035;DHT22;6584;48.022;11.810;2022-11-03T03:39:01;7.20;99.90
13035;DHT22;6584;48.022;11.810;2022-11-03T03:41:28;7.20;99.90
13035;DHT22;6584;48.022;11.810;2022-11-03T03:44:00;7.20;99.90
13035;DHT22;6584;48.022;11.810;2022-11-03T03:46:31;7.30;99.90
13035;DHT22;6584;48.022;11.810;2022-11-03T03:48:59;7.30;99.90
13035;DHT22;6584;48.022;11.810;2022-11-03T03:51:26;7.30;99.90
13035;DHT22;6584;48.022;11.810;2022-11-03T03:53:53;7.10;99.90
13035;DHT22;6584;48.022;11.810;2022-11-03T03:56:24;7.10;99.90
13035;DHT22;6584;48.022;11.810;2022-11-03T03:58:51;7.20;99.90
13035;DHT22;6584;48.022;11.810;2022-11-03T04:01:16;7.30;99.90
13035;DHT22;6584;48.022;11.810;2022-11-03T04:03:42;7.40;99.90
13035;DHT22;6584;48.022;11.810;2022-11-03T04:06:08;7.40;99.90
13035;DHT22;6584;48.022;11.810;2022-11-03T04:08:33;7.30;99.90
13035;DHT22;6584;48.022;11.810;2022-11-03T04:10:59;7.30;99.90
13035;DHT22;6584;48.022;11.810;2022-11-03T04:13:43;7.30;99.90
13035;DHT22;6584;48.022;11.810;2022-11-03T04:16:27;7.20;99.90
13035;DHT22;6584;48.022;11.810;2022-11-03T04:19:15;7.20;99.90
13035;DHT22;6584;48.022;11.810;2022-11-03T04:22:00;7.30;99.90
13035;DHT22;6584;48.022;11.810;2022-11-03T04:24:49;7.30;99.90
13035;DHT22;6584;48.022;11.810;2022-11-03T04:27:34;7.40;99.90
13035;DHT22;6584;48.022;11.810;2022-11-03T04:30:15;7.50;99.90
13035;DHT22;6584;48.022;11.810;2022-11-03T04:32:42;7.60;99.90
13035;DHT22;6584;48.022;11.810;2022-11-03T04:35:19;7.60;99.90
13035;DHT22;6584;48.022;11.810;2022-11-03T04:38:15;7.70;99.90
13035;DHT22;6584;48.022;11.810;2022-11-03T04:40:47;7.70;99.90
13035;DHT22;6584;48.022;11.810;2022-11-03T04:43:17;7.60;99.90
13035;DHT22;6584;48.022;11.810;2022-11-03T04:45:44;7.50;99.90
13035;DHT22;6584;48.022;11.810;2022-11-03T04:48:20;7.40;99.90
13035;DHT22;6584;48.022;11.810;2022-11-03T04:50:47;7.40;99.90
13035;DHT22;6584;48.022;11.810;2022-11-03T04:53:16;7.40;99.90
13035;DHT22;6584;48.022;11.810;2022-11-03T04:55:43;7.40;99.90
13035;DHT22;6584;48.022;11.810;2022-11-03T04:58:19;7.40;99.90
13035;DHT22;6584;48.022;11.810;2022-11-03T05:00:48;7.40;99.90
13035;DHT22;6584;48.022;11.810;2022-11-03T05:03:20;7.40;99.90
13035;DHT22;6584;48.022;11.810;2022-11-03T05:05:47;7.40;99.90
13035;DHT22;6584;48.022;11.810;2022-11-03T05:08:16;7.40;99.90
13035;DHT22;6584;48.022;11.810;2022-11-03T05:10:42;7.40;99.90
13035;DHT22;6584;48.022;11.810;2022-11-03T05:13:28;7.40;99.90
13035;DHT22;6584;48.022;11.810;2022-11-03T05:16:02;7.40;99.90
13035;DHT22;6584;48.022;11.810;2022-11-03T05:18:31;7.60;99.90
13035;DHT22;6584;48.022;11.810;2022-11-03T05:20:58;7.60;99.90
13035;DHT22;6584;48.022;11.810;2022-11-03T05:23:28;7.50;99.90
13035;DHT22;6584;48.022;11.810;2022-11-03T05:25:57;7.30;99.90
13035;DHT22;6584;48.022;11.810;2022-11-03T05:28:27;7.40;99.90
13035;DHT22;6584;48.022;11.810;2022-11-03T05:30:54;7.30;99.90
13035;DHT22;6584;48.022;11.810;2022-11-03T05:33:24;7.20;99.90
13035;DHT22;6584;48.022;11.810;2022-11-03T05:35:50;7.10;99.90
13035;DHT22;6584;48.022;11.810;2022-11-03T05:38:18;7.00;99.90
13035;DHT22;6584;48.022;11.810;2022-11-03T05:40:45;7.00;99.90
13035;DHT22;6584;48.022;11.810;2022-11-03T05:43:13;7.10;99.90
13035;DHT22;6584;48.022;11.810;2022-11-03T05:45:40;7.10;99.90
13035;DHT22;6584;48.022;11.810;2022-11-03T05:48:32;7.20;99.90
13035;DHT22;6584;48.022;11.810;2022-11-03T05:50:59;7.20;99.90
13035;DHT22;6584;48.022;11.810;2022-11-03T05:53:30;7.20;99.90
13035;DHT22;6584;48.022;11.810;2022-11-03T05:55:58;7.20;99.90
13035;DHT22;6584;48.022;11.810;2022-11-03T06:00:51;7.30;99.90
13035;DHT22;6584;48.022;11.810;2022-11-03T06:03:24;7.30;99.90
13035;DHT22;6584;48.022;11.810;2022-11-03T06:05:52;7.40;99.90
13035;DHT22;6584;48.022;11.810;2022-11-03T06:08:20;7.40;99.90
13035;DHT22;6584;48.022;11.810;2022-11-03T06:10:50;7.40;99.90
13035;DHT22;6584;48.022;11.810;2022-11-03T06:13:23;7.40;99.90
13035;DHT22;6584;48.022;11.810;2022-11-03T06:15:55;7.40;99.90
13035;DHT22;6584;48.022;11.810;2022-11-03T06:18:24;7.30;99.90
13035;DHT22;6584;48.022;11.810;2022-11-03T06:20:53;7.20;99.90
13035;DHT22;6584;48.022;11.810;2022-11-03T06:23:20;7.30;99.90
13035;DHT22;6584;48.022;11.810;2022-11-03T06:25:46;7.40;99.90
13035;DHT22;6584;48.022;11.810;2022-11-03T06:28:25;7.30;99.90
13035;DHT22;6584;48.022;11.810;2022-11-03T06:30:55;7.30;99.90
13035;DHT22;6584;48.022;11.810;2022-11-03T06:33:26;7.40;99.90
13035;DHT22;6584;48.022;11.810;2022-11-03T06:36:01;7.40;99.90
13035;DHT22;6584;48.022;11.810;2022-11-03T06:38:28;7.40;99.90
13035;DHT22;6584;48.022;11.810;2022-11-03T06:40:56;7.40;99.90
13035;DHT22;6584;48.022;11.810;2022-11-03T06:43:29;7.30;99.90
13035;DHT22;6584;48.022;11.810;2022-11-03T06:46:01;7.40;99.90
13035;DHT22;6584;48.022;11.810;2022-11-03T06:48:33;7.40;99.90
13035;DHT22;6584;48.022;11.810;2022-11-03T06:50:59;7.40;99.90
13035;DHT22;6584;48.022;11.810;2022-11-03T06:53:28;7.40;99.90
13035;DHT22;6584;48.022;11.810;2022-11-03T06:55:55;7.30;99.90
13035;DHT22;6584;48.022;11.810;2022-11-03T06:58:31;7.20;99.90
13035;DHT22;6584;48.022;11.810;2022-11-03T07:01:01;7.30;99.90
13035;DHT22;6584;48.022;11.810;2022-11-03T07:03:31;7.40;99.90
13035;DHT22;6584;48.022;11.810;2022-11-03T07:06:02;7.40;99.90
13035;DHT22;6584;48.022;11.810;2022-11-03T07:08:47;7.50;99.90
13035;DHT22;6584;48.022;11.810;2022-11-03T07:11:25;7.60;99.90
13035;DHT22;6584;48.022;11.810;2022-11-03T07:13:54;7.60;99.90
13035;DHT22;6584;48.022;11.810;2022-11-03T07:16:34;7.60;99.90
13035;DHT22;6584;48.022;11.810;2022-11-03T07:19:04;7.80;99.90
13035;DHT22;6584;48.022;11.810;2022-11-03T07:24:33;7.80;99.90
13035;DHT22;6584;48.022;11.810;2022-11-03T07:29:52;7.50;99.90
13035;DHT22;6584;48.022;11.810;2022-11-03T07:32:21;7.70;99.90
13035;DHT22;6584;48.022;11.810;2022-11-03T07:34:48;7.80;99.90
13035;DHT22;6584;48.022;11.810;2022-11-03T07:37:22;7.80;99.90
13035;DHT22;6584;48.022;11.810;2022-11-03T07:39:48;7.80;99.90
13035;DHT22;6584;48.022;11.810;2022-11-03T07:42:21;7.90;99.90
13035;DHT22;6584;48.022;11.810;2022-11-03T07:44:47;8.00;99.90
13035;DHT22;6584;48.022;11.810;2022-11-03T07:47:18;7.90;99.90
13035;DHT22;6584;48.022;11.810;2022-11-03T07:49:44;8.00;99.90
13035;DHT22;6584;48.022;11.810;2022-11-03T07:52:15;8.10;99.90
13035;DHT22;6584;48.022;11.810;2022-11-03T07:54:41;8.20;99.90
13035;DHT22;6584;48.022;11.810;2022-11-03T07:59:44;8.00;99.90
13035;DHT22;6584;48.022;11.810;2022-11-03T08:02:35;7.90;99.90
13035;DHT22;6584;48.022;11.810;2022-11-03T08:05:01;8.10;99.90
13035;DHT22;6584;48.022;11.810;2022-11-03T08:07:28;8.30;99.90
13035;DHT22;6584;48.022;11.810;2022-11-03T08:09:54;8.40;99.90
13035;DHT22;6584;48.022;11.810;2022-11-03T08:12:20;8.50;99.90
13035;DHT22;6584;48.022;11.810;2022-11-03T08:14:46;8.60;99.90
13035;DHT22;6584;48.022;11.810;2022-11-03T08:17:12;8.70;99.90
13035;DHT22;6584;48.022;11.810;2022-11-03T08:19:39;8.80;99.90
13035;DHT22;6584;48.022;11.810;2022-11-03T08:22:04;8.90;99.90
13035;DHT22;6584;48.022;11.810;2022-11-03T08:24:30;9.00;99.90
13035;DHT22;6584;48.022;11.810;2022-11-03T08:26:55;9.00;99.90
13035;DHT22;6584;48.022;11.810;2022-11-03T08:29:21;9.00;99.90
13035;DHT22;6584;48.022;11.810;2022-11-03T08:31:47;9.00;99.90
13035;DHT22;6584;48.022;11.810;2022-11-03T08:34:12;9.10;99.90
13035;DHT22;6584;48.022;11.810;2022-11-03T08:36:38;9.10;99.90
13035;DHT22;6584;48.022;11.810;2022-11-03T08:39:04;9.20;99.90
13035;DHT22;6584;48.022;11.810;2022-11-03T08:41:30;9.20;99.90
13035;DHT22;6584;48.022;11.810;2022-11-03T08:43:56;9.20;99.90
13035;DHT22;6584;48.022;11.810;2022-11-03T08:46:21;9.20;99.90
13035;DHT22;6584;48.022;11.810;2022-11-03T08:48:47;9.30;99.90
13035;DHT22;6584;48.022;11.810;2022-11-03T08:51:13;9.40;99.90
13035;DHT22;6584;48.022;11.810;2022-11-03T08:53:39;9.40;99.90
13035;DHT22;6584;48.022;11.810;2022-11-03T08:56:07;9.60;99.90
13035;DHT22;6584;48.022;11.810;2022-11-03T08:58:32;9.60;99.90
13035;DHT22;6584;48.022;11.810;2022-11-03T09:00:58;9.70;99.90
13035;DHT22;6584;48.022;11.810;2022-11-03T09:03:23;9.60;99.90
13035;DHT22;6584;48.022;11.810;2022-11-03T09:05:49;9.40;99.90
13035;DHT22;6584;48.022;11.810;2022-11-03T09:08:15;9.40;99.90
13035;DHT22;6584;48.022;11.810;2022-11-03T09:10:40;9.50;99.90
13035;DHT22;6584;48.022;11.810;2022-11-03T09:13:06;9.70;99.90
13035;DHT22;6584;48.022;11.810;2022-11-03T09:15:32;9.60;99.90
13035;DHT22;6584;48.022;11.810;2022-11-03T09:17:58;9.20;99.90
13035;DHT22;6584;48.022;11.810;2022-11-03T09:20:24;9.20;99.90
13035;DHT22;6584;48.022;11.810;2022-11-03T09:22:50;9.30;99.90
13035;DHT22;6584;48.022;11.810;2022-11-03T09:25:16;9.40;99.90
13035;DHT22;6584;48.022;11.810;2022-11-03T09:27:41;9.60;99.90
13035;DHT22;6584;48.022;11.810;2022-11-03T09:30:07;9.80;99.90
13035;DHT22;6584;48.022;11.810;2022-11-03T09:32:33;9.90;99.90
13035;DHT22;6584;48.022;11.810;2022-11-03T09:34:59;10.00;99.90
13035;DHT22;6584;48.022;11.810;2022-11-03T09:37:24;10.00;99.90
13035;DHT22;6584;48.022;11.810;2022-11-03T09:39:50;10.00;99.90
13035;DHT22;6584;48.022;11.810;2022-11-03T09:42:16;9.90;99.90
13035;DHT22;6584;48.022;11.810;2022-11-03T09:44:43;9.90;99.90
13035;DHT22;6584;48.022;11.810;2022-11-03T09:47:14;10.00;99.90
13035;DHT22;6584;48.022;11.810;2022-11-03T09:49:43;9.60;99.90
13035;DHT22;6584;48.022;11.810;2022-11-03T09:52:11;9.60;99.90
13035;DHT22;6584;48.022;11.810;2022-11-03T09:54:39;9.50;99.90
13035;DHT22;6584;48.022;11.810;2022-11-03T09:57:11;9.70;99.90
13035;DHT22;6584;48.022;11.810;2022-11-03T09:59:37;9.80;99.90
13035;DHT22;6584;48.022;11.810;2022-11-03T10:02:30;9.80;99.90
13035;DHT22;6584;48.022;11.810;2022-11-03T10:04:57;10.10;99.90
13035;DHT22;6584;48.022;11.810;2022-11-03T10:07:27;10.20;99.90
13035;DHT22;6584;48.022;11.810;2022-11-03T10:09:53;10.30;99.90
13035;DHT22;6584;48.022;11.810;2022-11-03T10:12:22;10.40;99.90
13035;DHT22;6584;48.022;11.810;2022-11-03T10:14:49;10.30;99.90
13035;DHT22;6584;48.022;11.810;2022-11-03T10:17:18;10.50;99.90
13035;DHT22;6584;48.022;11.810;2022-11-03T10:19:48;10.50;99.90
13035;DHT22;6584;48.022;11.810;2022-11-03T10:22:15;10.60;99.90
13035;DHT22;6584;48.022;11.810;2022-11-03T10:24:41;10.70;99.90
13035;DHT22;6584;48.022;11.810;2022-11-03T10:27:27;10.80;99.90
13035;DHT22;6584;48.022;11.810;2022-11-03T10:30:10;10.70;99.90
13035;DHT22;6584;48.022;11.810;2022-11-03T10:32:36;10.70;99.90
13035;DHT22;6584;48.022;11.810;2022-11-03T10:35:32;10.80;99.90
13035;DHT22;6584;48.022;11.810;2022-11-03T10:40:48;10.80;99.90
13035;DHT22;6584;48.022;11.810;2022-11-03T10:43:14;10.80;99.90
13035;DHT22;6584;48.022;11.810;2022-11-03T10:45:39;10.80;99.90
13035;DHT22;6584;48.022;11.810;2022-11-03T10:48:05;10.90;99.90
13035;DHT22;6584;48.022;11.810;2022-11-03T10:50:32;10.60;99.90
13035;DHT22;6584;48.022;11.810;2022-11-03T10:52:58;10.60;99.90
13035;DHT22;6584;48.022;11.810;2022-11-03T10:55:24;10.70;99.90
13035;DHT22;6584;48.022;11.810;2022-11-03T10:57:51;10.80;99.90
13035;DHT22;6584;48.022;11.810;2022-11-03T11:00:18;10.80;99.90
13035;DHT22;6584;48.022;11.810;2022-11-03T11:02:45;11.00;99.90
13035;DHT22;6584;48.022;11.810;2022-11-03T11:05:18;10.90;99.90
13035;DHT22;6584;48.022;11.810;2022-11-03T11:07:44;11.00;99.90
13035;DHT22;6584;48.022;11.810;2022-11-03T11:10:30;11.10;99.90
13035;DHT22;6584;48.022;11.810;2022-11-03T11:15:47;11.10;99.90
13035;DHT22;6584;48.022;11.810;2022-11-03T11:31:10;11.00;99.90
13035;DHT22;6584;48.022;11.810;2022-11-03T11:33:47;11.00;99.90
13035;DHT22;6584;48.022;11.810;2022-11-03T11:36:23;11.20;99.90
13035;DHT22;6584;48.022;11.810;2022-11-03T11:41:20;11.20;99.90
13035;DHT22;6584;48.022;11.810;2022-11-03T11:43:46;11.00;99.90
13035;DHT22;6584;48.022;11.810;2022-11-03T11:51:20;11.10;99.90
13035;DHT22;6584;48.022;11.810;2022-11-03T11:53:46;11.10;99.90
13035;DHT22;6584;48.022;11.810;2022-11-03T11:56:14;11.20;99.90
13035;DHT22;6584;48.022;11.810;2022-11-03T11:58:43;11.20;99.90
13035;DHT22;6584;48.022;11.810;2022-11-03T12:01:29;11.20;99.90
13035;DHT22;6584;48.022;11.810;2022-11-03T12:04:00;11.20;99.90
13035;DHT22;6584;48.022;11.810;2022-11-03T12:06:37;11.20;99.90
13035;DHT22;6584;48.022;11.810;2022-11-03T12:09:05;11.30;99.90
13035;DHT22;6584;48.022;11.810;2022-11-03T12:12:00;11.30;99.90
13035;DHT22;6584;48.022;11.810;2022-11-03T12:14:36;11.50;99.90
13035;DHT22;6584;48.022;11.810;2022-11-03T12:19:44;11.60;99.90
13035;DHT22;6584;48.022;11.810;2022-11-03T12:22:38;11.70;99.90
13035;DHT22;6584;48.022;11.810;2022-11-03T12:25:00;11.90;99.90
13035;DHT22;6584;48.022;11.810;2022-11-03T12:29:53;11.90;99.90
13035;DHT22;6584;48.022;11.810;2022-11-03T12:32:19;12.10;99.90
13035;DHT22;6584;48.022;11.810;2022-11-03T12:34:45;12.10;99.90
13035;DHT22;6584;48.022;11.810;2022-11-03T12:37:11;12.10;99.90
13035;DHT22;6584;48.022;11.810;2022-11-03T12:39:37;12.10;99.90
13035;DHT22;6584;48.022;11.810;2022-11-03T12:42:03;12.20;99.90
13035;DHT22;6584;48.022;11.810;2022-11-03T12:44:28;12.20;99.90
13035;DHT22;6584;48.022;11.810;2022-11-03T12:46:54;12.20;99.90
13035;DHT22;6584;48.022;11.810;2022-11-03T12:49:19;12.10;99.90
13035;DHT22;6584;48.022;11.810;2022-11-03T12:51:45;12.10;99.90
13035;DHT22;6584;48.022;11.810;2022-11-03T12:54:11;12.00;99.90
13035;DHT22;6584;48.022;11.810;2022-11-03T12:56:36;12.00;99.90
13035;DHT22;6584;48.022;11.810;2022-11-03T12:59:02;11.90;99.90
13035;DHT22;6584;48.022;11.810;2022-11-03T13:01:28;12.00;99.90
13035;DHT22;6584;48.022;11.810;2022-11-03T13:03:54;12.00;99.90
13035;DHT22;6584;48.022;11.810;2022-11-03T13:06:19;12.10;99.90
13035;DHT22;6584;48.022;11.810;2022-11-03T13:08:45;12.00;99.90
13035;DHT22;6584;48.022;11.810;2022-11-03T13:11:11;12.10;99.90
13035;DHT22;6584;48.022;11.810;2022-11-03T13:13:56;12.10;99.90
13035;DHT22;6584;48.022;11.810;2022-11-03T13:16:21;12.10;99.90
13035;DHT22;6584;48.022;11.810;2022-11-03T13:18:47;12.00;99.90
13035;DHT22;6584;48.022;11.810;2022-11-03T13:21:13;12.00;99.90
13035;DHT22;6584;48.022;11.810;2022-11-03T13:23:39;12.10;99.90
13035;DHT22;6584;48.022;11.810;2022-11-03T13:26:05;12.20;99.90
13035;DHT22;6584;48.022;11.810;2022-11-03T13:28:30;12.20;99.90
13035;DHT22;6584;48.022;11.810;2022-11-03T13:30:56;12.20;99.90
13035;DHT22;6584;48.022;11.810;2022-11-03T13:33:22;12.20;99.90
13035;DHT22;6584;48.022;11.810;2022-11-03T13:35:47;12.00;99.90
13035;DHT22;6584;48.022;11.810;2022-11-03T13:38:13;12.00;99.90
13035;DHT22;6584;48.022;11.810;2022-11-03T13:40:38;12.00;99.90
13035;DHT22;6584;48.022;11.810;2022-11-03T13:43:04;12.10;99.90
13035;DHT22;6584;48.022;11.810;2022-11-03T13:45:30;12.20;99.90
13035;DHT22;6584;48.022;11.810;2022-11-03T13:47:55;12.20;99.90
13035;DHT22;6584;48.022;11.810;2022-11-03T13:50:21;12.30;99.90
13035;DHT22;6584;48.022;11.810;2022-11-03T13:52:48;12.30;99.90
13035;DHT22;6584;48.022;11.810;2022-11-03T13:55:14;12.20;99.90
13035;DHT22;6584;48.022;11.810;2022-11-03T13:57:40;12.10;99.90
13035;DHT22;6584;48.022;11.810;2022-11-03T14:00:07;12.30;99.90
13035;DHT22;6584;48.022;11.810;2022-11-03T14:02:36;12.30;99.90
13035;DHT22;6584;48.022;11.810;2022-11-03T14:05:01;12.40;99.90
13035;DHT22;6584;48.022;11.810;2022-11-03T14:07:27;12.30;99.90
13035;DHT22;6584;48.022;11.810;2022-11-03T14:09:53;12.30;99.90
13035;DHT22;6584;48.022;11.810;2022-11-03T14:12:18;12.40;99.90
13035;DHT22;6584;48.022;11.810;2022-11-03T14:15:01;12.30;99.90
13035;DHT22;6584;48.022;11.810;2022-11-03T14:17:26;12.30;99.90
13035;DHT22;6584;48.022;11.810;2022-11-03T14:19:53;12.30;99.90
13035;DHT22;6584;48.022;11.810;2022-11-03T14:22:19;12.40;99.90
13035;DHT22;6584;48.022;11.810;2022-11-03T14:24:45;12.40;99.90
13035;DHT22;6584;48.022;11.810;2022-11-03T14:27:11;12.40;99.90
13035;DHT22;6584;48.022;11.810;2022-11-03T14:29:37;12.40;99.90
13035;DHT22;6584;48.022;11.810;2022-11-03T14:32:03;12.40;99.90
13035;DHT22;6584;48.022;11.810;2022-11-03T14:34:29;12.40;99.90
13035;DHT22;6584;48.022;11.810;2022-11-03T14:36:55;12.40;99.90
13035;DHT22;6584;48.022;11.810;2022-11-03T14:39:20;12.30;99.90
13035;DHT22;6584;48.022;11.810;2022-11-03T14:41:46;12.30;99.90
13035;DHT22;6584;48.022;11.810;2022-11-03T14:44:34;12.20;99.90
13035;DHT22;6584;48.022;11.810;2022-11-03T14:47:01;12.30;99.90
13035;DHT22;6584;48.022;11.810;2022-11-03T14:49:28;12.30;99.90
13035;DHT22;6584;48.022;11.810;2022-11-03T14:51:54;12.30;99.90
13035;DHT22;6584;48.022;11.810;2022-11-03T14:54:24;12.10;99.90
13035;DHT22;6584;48.022;11.810;2022-11-03T14:56:50;12.00;99.90
13035;DHT22;6584;48.022;11.810;2022-11-03T14:59:16;11.90;99.90
13035;DHT22;6584;48.022;11.810;2022-11-03T15:01:41;11.90;99.90
13035;DHT22;6584;48.022;11.810;2022-11-03T15:04:07;11.90;99.90
13035;DHT22;6584;48.022;11.810;2022-11-03T15:06:33;11.90;99.90
13035;DHT22;6584;48.022;11.810;2022-11-03T15:08:59;11.90;99.90
13035;DHT22;6584;48.022;11.810;2022-11-03T15:11:25;11.80;99.90
13035;DHT22;6584;48.022;11.810;2022-11-03T15:13:51;11.90;99.90
13035;DHT22;6584;48.022;11.810;2022-11-03T15:16:18;11.90;99.90
13035;DHT22;6584;48.022;11.810;2022-11-03T15:18:44;11.80;99.90
13035;DHT22;6584;48.022;11.810;2022-11-03T15:21:09;11.80;99.90
13035;DHT22;6584;48.022;11.810;2022-11-03T15:23:35;12.00;99.90
13035;DHT22;6584;48.022;11.810;2022-11-03T15:26:01;11.90;99.90
13035;DHT22;6584;48.022;11.810;2022-11-03T15:28:26;11.90;99.90
13035;DHT22;6584;48.022;11.810;2022-11-03T15:30:52;11.80;99.90
13035;DHT22;6584;48.022;11.810;2022-11-03T15:33:18;11.80;99.90
13035;DHT22;6584;48.022;11.810;2022-11-03T15:35:43;11.70;99.90
13035;DHT22;6584;48.022;11.810;2022-11-03T15:38:09;11.60;99.90
13035;DHT22;6584;48.022;11.810;2022-11-03T15:40:34;11.60;99.90
13035;DHT22;6584;48.022;11.810;2022-11-03T15:43:00;11.60;99.90
13035;DHT22;6584;48.022;11.810;2022-11-03T15:45:26;11.60;99.90
13035;DHT22;6584;48.022;11.810;2022-11-03T15:47:51;11.50;99.90
13035;DHT22;6584;48.022;11.810;2022-11-03T15:50:17;11.50;99.90
13035;DHT22;6584;48.022;11.810;2022-11-03T15:52:43;11.50;99.90
13035;DHT22;6584;48.022;11.810;2022-11-03T15:55:09;11.30;99.90
13035;DHT22;6584;48.022;11.810;2022-11-03T15:57:35;11.30;99.90
13035;DHT22;6584;48.022;11.810;2022-11-03T16:00:01;11.20;99.90
13035;DHT22;6584;48.022;11.810;2022-11-03T16:02:27;11.20;99.90
13035;DHT22;6584;48.022;11.810;2022-11-03T16:04:53;11.10;99.90
13035;DHT22;6584;48.022;11.810;2022-11-03T16:07:19;11.10;99.90
13035;DHT22;6584;48.022;11.810;2022-11-03T16:09:44;11.10;99.90
13035;DHT22;6584;48.022;11.810;2022-11-03T16:12:11;10.90;99.90
13035;DHT22;6584;48.022;11.810;2022-11-03T16:14:37;10.90;99.90
13035;DHT22;6584;48.022;11.810;2022-11-03T16:17:02;10.80;99.90
13035;DHT22;6584;48.022;11.810;2022-11-03T16:19:29;10.80;99.90
13035;DHT22;6584;48.022;11.810;2022-11-03T16:21:55;10.60;99.90
13035;DHT22;6584;48.022;11.810;2022-11-03T16:24:20;10.60;99.90
13035;DHT22;6584;48.022;11.810;2022-11-03T16:26:46;10.70;99.90
13035;DHT22;6584;48.022;11.810;2022-11-03T16:29:11;10.60;99.90
13035;DHT22;6584;48.022;11.810;2022-11-03T16:31:37;10.50;99.90
13035;DHT22;6584;48.022;11.810;2022-11-03T16:34:02;10.50;99.90
13035;DHT22;6584;48.022;11.810;2022-11-03T16:36:29;10.60;99.90
13035;DHT22;6584;48.022;11.810;2022-11-03T16:38:55;10.60;99.90
13035;DHT22;6584;48.022;11.810;2022-11-03T16:41:20;10.60;99.90
13035;DHT22;6584;48.022;11.810;2022-11-03T16:43:46;10.50;99.90
13035;DHT22;6584;48.022;11.810;2022-11-03T16:46:13;10.60;99.90